Time;durP1;ratioP1;P1;durP2;ratioP2;P2;SDS_P1;SDS_P2;PMS_P1;PMS_P2;Temp;Humidity;BMP_temperature;BMP_pressure;BME280_temperature;BME280_humidity;BME280_pressure;Samples;Min_cycle;Max_cycle;Signal;HPM_P1;HPM_P2
2023/01/02 00:00:58;;;;;;;3.25;1.65;;;5.90;99.90;;;;;;5095078;28;20040;-61
2023/01/02 00:03:25;;;;;;;2.47;1.55;;;5.80;99.90;;;;;;5097743;28;20583;-61
2023/01/02 00:05:53;;;;;;;4.28;1.73;;;5.70;99.90;;;;;;5092964;28;20032;-61
2023/01/02 00:08:20;;;;;;;3.63;1.92;;;5.70;99.90;;;;;;5101402;28;20499;-61
2023/01/02 00:10:46;;;;;;;5.18;2.13;;;5.60;99.90;;;;;;5096598;28;20093;-61
2023/01/02 00:13:17;;;;;;;6.43;1.90;;;5.60;99.90;;;;;;5098634;28;20047;-61
2023/01/02 00:15:43;;;;;;;4.40;1.52;;;5.60;99.90;;;;;;5094288;28;20051;-61
2023/01/02 00:18:10;;;;;;;2.80;1.70;;;5.60;99.90;;;;;;5092327;28;20616;-61
2023/01/02 00:20:37;;;;;;;3.90;2.05;;;5.60;99.90;;;;;;5097635;28;20044;-61
2023/01/02 00:23:04;;;;;;;6.15;2.40;;;5.60;99.90;;;;;;5097480;28;20070;-61
2023/01/02 00:25:33;;;;;;;6.07;1.90;;;5.70;99.90;;;;;;5094073;28;20751;-61
2023/01/02 00:28:01;;;;;;;4.68;2.03;;;5.70;99.90;;;;;;5100495;28;20051;-61
2023/01/02 00:30:27;;;;;;;;;;;5.80;99.90;;;;;;5098918;28;20040;-61
2023/01/02 00:33:03;;;;;;;3.58;1.50;;;5.80;99.90;;;;;;5093975;28;19974;-61
2023/01/02 00:35:30;;;;;;;3.22;1.77;;;5.70;99.90;;;;;;5094063;28;20075;-61
2023/01/02 00:37:57;;;;;;;2.40;1.63;;;5.80;99.90;;;;;;5099247;28;20044;-61
2023/01/02 00:40:23;;;;;;;1.80;1.17;;;5.70;99.90;;;;;;5093989;28;20043;-61
2023/01/02 00:42:50;;;;;;;3.90;2.03;;;6.00;99.90;;;;;;5099849;28;20040;-61
2023/01/02 00:45:17;;;;;;;3.03;1.75;;;5.70;99.90;;;;;;5093204;28;20093;-61
2023/01/02 00:47:44;;;;;;;4.10;1.77;;;5.60;99.90;;;;;;5091698;28;20093;-61
2023/01/02 00:50:10;;;;;;;2.83;1.50;;;5.60;99.90;;;;;;5099319;28;20051;-61
2023/01/02 00:52:37;;;;;;;2.05;1.15;;;6.00;99.90;;;;;;5094052;28;20047;-60
2023/01/02 00:55:04;;;;;;;2.88;1.33;;;6.10;99.90;;;;;;5092525;28;20059;-61
2023/01/02 00:57:31;;;;;;;3.47;1.52;;;6.00;99.90;;;;;;5091790;28;20039;-61
2023/01/02 00:59:58;;;;;;;2.20;1.48;;;6.00;99.90;;;;;;5090421;28;20441;-61
2023/01/02 01:02:25;;;;;;;7.40;1.67;;;5.90;99.90;;;;;;5103118;28;20032;-61
2023/01/02 01:04:52;;;;;;;4.82;1.85;;;5.90;99.90;;;;;;5091304;28;20519;-61
2023/01/02 01:07:18;;;;;;;2.70;1.60;;;5.80;99.90;;;;;;5100434;28;20093;-61
2023/01/02 01:09:45;;;;;;;4.20;1.90;;;5.80;99.90;;;;;;5096899;28;20051;-61
2023/01/02 01:12:12;;;;;;;3.15;1.67;;;5.80;99.90;;;;;;5093077;28;20032;-61
2023/01/02 01:14:38;;;;;;;5.20;2.17;;;5.70;99.90;;;;;;5093874;28;20044;-61
2023/01/02 01:17:06;;;;;;;3.45;1.85;;;5.70;99.90;;;;;;5097506;28;20097;-61
2023/01/02 01:19:34;;;;;;;3.70;1.98;;;5.70;99.90;;;;;;5096283;28;20040;-61
2023/01/02 01:22:01;;;;;;;4.10;1.42;;;5.70;99.90;;;;;;5082021;28;20039;-61
2023/01/02 01:24:28;;;;;;;3.53;1.50;;;5.60;99.90;;;;;;5091186;28;20093;-61
2023/01/02 01:26:55;;;;;;;3.05;1.48;;;5.50;99.90;;;;;;5090413;28;20103;-61
2023/01/02 01:29:22;;;;;;;3.95;1.50;;;5.50;99.90;;;;;;5121710;22;20039;-60
2023/01/02 01:31:48;;;;;;;4.00;1.67;;;5.50;99.90;;;;;;5122777;27;20040;-59
2023/01/02 01:34:15;;;;;;;4.82;1.90;;;5.50;99.90;;;;;;5131114;27;20484;-59
2023/01/02 01:36:42;;;;;;;5.10;2.20;;;5.50;99.90;;;;;;5132370;27;20039;-59
2023/01/02 01:39:08;;;;;;;3.97;1.98;;;5.60;99.90;;;;;;5120910;27;20052;-60
2023/01/02 01:41:35;;;;;;;4.63;2.03;;;5.60;99.90;;;;;;5107908;27;20039;-59
2023/01/02 01:44:37;;;;;;;3.10;1.90;;;5.60;99.90;;;;;;5122983;27;20100;-60
2023/01/02 01:47:04;;;;;;;1.95;1.35;;;5.60;99.90;;;;;;5131394;27;20066;-60
2023/01/02 01:49:31;;;;;;;4.45;1.55;;;5.60;99.90;;;;;;5131106;27;20403;-60
2023/01/02 01:52:05;;;;;;;6.28;1.75;;;5.60;99.90;;;;;;5131828;27;20155;-60
2023/01/02 01:54:55;;;;;;;6.45;1.48;;;5.50;99.90;;;;;;5111136;27;20066;-60
2023/01/02 01:58:02;;;;;;;2.55;1.38;;;5.40;99.90;;;;;;5103145;28;20036;-60
2023/01/02 02:00:29;;;;;;;4.68;2.03;;;5.40;99.90;;;;;;5111707;28;20043;-60
2023/01/02 02:03:02;;;;;;;4.55;2.15;;;5.40;99.90;;;;;;5103309;28;20480;-60
2023/01/02 02:05:30;;;;;;;3.65;2.10;;;5.30;99.90;;;;;;5116569;28;20110;-60
2023/01/02 02:08:09;;;;;;;4.80;2.08;;;5.30;99.90;;;;;;5130615;28;20463;-59
2023/01/02 02:10:37;;;;;;;5.03;2.40;;;5.30;99.90;;;;;;5125966;27;20039;-61
2023/01/02 02:13:04;;;;;;;5.00;1.90;;;5.40;99.90;;;;;;5131023;28;20088;-59
2023/01/02 02:15:51;;;;;;;5.07;2.00;;;5.40;99.90;;;;;;5131361;28;20100;-59
2023/01/02 02:18:49;;;;;;;5.07;1.60;;;5.40;99.90;;;;;;5132090;27;20085;-60
2023/01/02 02:21:39;;;;;;;3.75;1.73;;;5.40;99.90;;;;;;5088519;28;20074;-62
2023/01/02 02:24:31;;;;;;;3.03;1.45;;;5.30;99.90;;;;;;5091510;28;20094;-61
2023/01/02 02:27:10;;;;;;;3.88;1.50;;;5.30;99.90;;;;;;5094706;28;20032;-60
2023/01/02 02:30:04;;;;;;;3.05;1.30;;;5.30;99.90;;;;;;5113909;27;20410;-60
2023/01/02 02:32:38;;;;;;;4.53;1.58;;;5.20;99.90;;;;;;5121151;27;20046;-59
2023/01/02 02:35:34;;;;;;;4.88;1.63;;;5.20;99.90;;;;;;5115216;28;20096;-62
2023/01/02 02:38:32;;;;;;;2.78;1.30;;;5.20;99.90;;;;;;5091316;28;20142;-61
2023/01/02 02:41:27;;;;;;;3.78;1.88;;;5.20;99.90;;;;;;5106761;28;20031;-61
2023/01/02 02:44:19;;;;;;;5.28;2.20;;;5.20;99.90;;;;;;5108975;28;20488;-61
2023/01/02 02:47:12;;;;;;;5.25;2.25;;;5.20;99.90;;;;;;5125338;27;20084;-61
2023/01/02 02:50:00;;;;;;;6.65;1.70;;;5.20;99.90;;;;;;5135486;27;20039;-61
2023/01/02 02:52:37;;;;;;;3.67;1.58;;;5.20;99.90;;;;;;5115226;27;20070;-61
2023/01/02 02:55:21;;;;;;;4.97;2.33;;;5.20;99.90;;;;;;5112497;28;20051;-61
2023/01/02 02:57:50;;;;;;;3.85;1.90;;;5.20;99.90;;;;;;5114900;28;20460;-61
2023/01/02 03:00:19;;;;;;;3.40;1.70;;;5.10;99.90;;;;;;5111716;28;20089;-61
2023/01/02 03:02:45;;;;;;;4.13;2.03;;;5.10;99.90;;;;;;5106101;28;20081;-61
2023/01/02 03:05:20;;;;;;;4.90;2.30;;;5.10;99.90;;;;;;5123552;27;20053;-61
2023/01/02 03:08:13;;;;;;;3.63;1.92;;;5.20;99.90;;;;;;5135265;27;20047;-61
2023/01/02 03:10:55;;;;;;;3.25;1.80;;;5.20;99.90;;;;;;5123684;27;20064;-61
2023/01/02 03:13:37;;;;;;;3.28;1.58;;;5.20;99.90;;;;;;5134879;27;20088;-60
2023/01/02 03:16:29;;;;;;;1.83;1.40;;;5.20;99.90;;;;;;5134438;27;20047;-60
2023/01/02 03:19:10;;;;;;;3.50;1.73;;;5.20;99.90;;;;;;5125110;27;20055;-60
2023/01/02 03:22:05;;;;;;;2.35;1.10;;;5.20;99.90;;;;;;5121592;27;20059;-59
2023/01/02 03:24:33;;;;;;;3.40;1.10;;;5.30;99.90;;;;;;5134258;27;20035;-60
2023/01/02 03:27:05;;;;;;;3.22;1.15;;;5.30;99.90;;;;;;5134104;27;20071;-60
2023/01/02 03:29:42;;;;;;;3.00;1.35;;;5.20;99.90;;;;;;5118521;27;20558;-61
2023/01/02 03:32:14;;;;;;;4.13;1.48;;;5.10;99.90;;;;;;5120637;27;20036;-59
2023/01/02 03:34:42;;;;;;;3.72;1.70;;;5.10;99.90;;;;;;5105772;28;20533;-61
2023/01/02 03:37:11;;;;;;;3.22;1.50;;;5.10;99.90;;;;;;5110814;27;20063;-61
2023/01/02 03:39:50;;;;;;;2.67;1.15;;;5.10;99.90;;;;;;5121845;27;20120;-61
2023/01/02 03:42:40;;;;;;;3.75;1.30;;;5.00;99.90;;;;;;5133421;27;20071;-61
2023/01/02 03:45:18;;;;;;;2.25;1.17;;;5.00;99.90;;;;;;5133639;27;20046;-61
2023/01/02 03:47:50;;;;;;;;;;;5.00;99.90;;;;;;5125286;27;20043;-61
2023/01/02 03:50:25;;;;;;;4.35;2.00;;;5.00;99.90;;;;;;5134230;27;19972;-62
2023/01/02 03:52:52;;;;;;;2.65;1.52;;;5.10;99.90;;;;;;5133962;27;20078;-59
2023/01/02 03:55:21;;;;;;;3.92;1.55;;;5.10;99.90;;;;;;5123140;27;20056;-61
2023/01/02 03:58:07;;;;;;;5.10;2.13;;;5.20;99.90;;;;;;5103078;27;20090;-61
2023/01/02 04:00:39;;;;;;;8.82;2.13;;;5.20;99.90;;;;;;5109419;28;20092;-59
2023/01/02 04:03:13;;;;;;;8.25;2.47;;;5.20;99.90;;;;;;5109637;28;20039;-61
2023/01/02 04:05:50;;;;;;;3.53;1.70;;;5.20;99.90;;;;;;5105832;28;20040;-61
2023/01/02 04:08:43;;;;;;;5.10;1.93;;;5.10;99.90;;;;;;5104526;28;20093;-61
2023/01/02 04:11:13;;;;;;;4.25;1.85;;;5.20;99.90;;;;;;5113545;28;20071;-61
2023/01/02 04:13:50;;;;;;;2.40;1.15;;;5.30;99.90;;;;;;5111935;28;20035;-61
2023/01/02 04:16:21;;;;;;;7.53;1.70;;;5.30;99.90;;;;;;5105120;27;20086;-61
2023/01/02 04:18:57;;;;;;;6.65;2.10;;;5.20;99.90;;;;;;5126841;27;20498;-61
2023/01/02 04:21:28;;;;;;;4.75;1.88;;;5.00;99.90;;;;;;5113108;28;20069;-61
2023/01/02 04:24:17;;;;;;;4.88;1.92;;;5.00;99.90;;;;;;5105534;28;20492;-61
2023/01/02 04:26:50;;;;;;;5.53;1.92;;;5.00;99.90;;;;;;5122575;27;20043;-61
2023/01/02 04:29:17;;;;;;;3.03;1.73;;;5.00;99.90;;;;;;5114080;27;20055;-61
2023/01/02 04:32:05;;;;;;;3.78;1.70;;;4.90;99.90;;;;;;5112984;28;20134;-61
2023/01/02 04:34:35;;;;;;;3.38;1.67;;;4.90;99.90;;;;;;5112370;28;20511;-61
2023/01/02 04:37:02;;;;;;;2.90;1.60;;;4.90;99.90;;;;;;5102270;28;20415;-61
2023/01/02 04:39:30;;;;;;;4.53;1.42;;;4.90;99.90;;;;;;5133638;27;20075;-61
2023/01/02 04:41:56;;;;;;;;;;;4.90;99.90;;;;;;5133226;27;20092;-61
2023/01/02 04:44:23;;;;;;;3.05;1.30;;;5.00;99.90;;;;;;5133370;27;20005;-61
2023/01/02 04:46:50;;;;;;;2.13;0.90;;;4.90;99.90;;;;;;5128818;27;20067;-61
2023/01/02 04:49:16;;;;;;;2.30;1.02;;;4.90;99.90;;;;;;5103394;28;20226;-61
2023/01/02 04:51:43;;;;;;;2.03;0.98;;;5.00;99.90;;;;;;5112732;28;20270;-61
2023/01/02 04:54:11;;;;;;;5.80;1.90;;;5.00;99.90;;;;;;5121215;27;20100;-61
2023/01/02 04:56:38;;;;;;;1.95;1.40;;;5.00;99.90;;;;;;5133454;27;20081;-61
2023/01/02 04:59:04;;;;;;;2.75;1.60;;;5.10;99.90;;;;;;5132855;27;20031;-61
2023/01/02 05:01:31;;;;;;;4.00;1.20;;;5.10;99.90;;;;;;5133437;27;20399;-61
2023/01/02 05:03:58;;;;;;;2.97;1.00;;;5.00;99.90;;;;;;5129162;27;20035;-59
2023/01/02 05:06:25;;;;;;;1.48;0.90;;;5.00;99.90;;;;;;5092506;28;20036;-59
2023/01/02 05:08:51;;;;;;;5.50;1.95;;;4.90;99.90;;;;;;5091963;28;20047;-61
2023/01/02 05:11:19;;;;;;;3.47;1.50;;;5.00;99.90;;;;;;5095331;28;20079;-61
2023/01/02 05:13:46;;;;;;;3.47;1.52;;;5.00;99.90;;;;;;5103704;28;20070;-62
2023/01/02 05:16:12;;;;;;;2.75;1.30;;;5.00;99.90;;;;;;5112682;28;20047;-62
2023/01/02 05:18:39;;;;;;;2.53;1.40;;;4.90;99.90;;;;;;5110020;28;20122;-61
2023/01/02 05:23:47;;;;;;;2.08;1.17;;;4.90;99.90;;;;;;5094055;27;20040;-59
2023/01/02 05:24:00;;;;;;;3.17;1.77;;;4.80;99.90;;;;;;5119576;27;20039;-59
2023/01/02 05:26:29;;;;;;;4.55;1.90;;;4.80;99.90;;;;;;5108414;27;20080;-59
2023/01/02 05:28:56;;;;;;;3.63;1.40;;;4.80;99.90;;;;;;5131731;27;20462;-61
2023/01/02 05:31:22;;;;;;;3.65;1.40;;;4.80;99.90;;;;;;5117558;27;20080;-62
2023/01/02 05:33:54;;;;;;;2.80;1.75;;;4.70;99.90;;;;;;5132070;27;20050;-59
2023/01/02 05:36:22;;;;;;;4.95;1.98;;;4.60;99.90;;;;;;5130984;27;20451;-59
2023/01/02 05:38:49;;;;;;;2.15;1.40;;;4.70;99.90;;;;;;5122437;27;20069;-61
2023/01/02 05:41:15;;;;;;;2.30;1.30;;;4.70;99.90;;;;;;5131427;27;20061;-61
2023/01/02 05:43:42;;;;;;;4.70;1.35;;;4.70;99.90;;;;;;5124120;27;20088;-61
2023/01/02 05:46:10;;;;;;;1.85;1.13;;;4.60;99.90;;;;;;5132044;27;20043;-61
2023/01/02 05:48:38;;;;;;;3.97;1.77;;;4.60;99.90;;;;;;5131350;27;20051;-61
2023/01/02 05:51:06;;;;;;;2.15;0.70;;;4.60;99.90;;;;;;5132304;27;20043;-61
2023/01/02 05:53:33;;;;;;;3.03;1.10;;;4.60;99.90;;;;;;5107846;27;20035;-61
2023/01/02 05:56:08;;;;;;;2.83;1.40;;;4.50;99.90;;;;;;5119864;27;20047;-61
2023/01/02 05:58:37;;;;;;;3.15;1.40;;;4.60;99.90;;;;;;5130505;27;20519;-61
2023/01/02 06:01:07;;;;;;;1.95;0.98;;;4.60;99.90;;;;;;5116590;27;20113;-61
2023/01/02 06:03:34;;;;;;;3.67;1.77;;;4.50;99.90;;;;;;5131578;27;20506;-61
2023/01/02 06:06:06;;;;;;;2.97;1.50;;;4.50;99.90;;;;;;5131251;28;20466;-61
2023/01/02 06:08:33;;;;;;;5.78;1.65;;;4.40;99.90;;;;;;5132139;27;20047;-61
2023/01/02 06:11:01;;;;;;;4.13;1.67;;;4.40;99.90;;;;;;5119268;27;20066;-61
2023/01/02 06:13:32;;;;;;;3.08;1.70;;;4.30;99.90;;;;;;5131474;27;20077;-61
2023/01/02 06:16:00;;;;;;;2.55;1.73;;;4.40;99.90;;;;;;5131692;27;20043;-61
2023/01/02 06:18:29;;;;;;;3.72;1.80;;;4.40;99.90;;;;;;5123124;27;20032;-61
2023/01/02 06:21:00;;;;;;;4.82;2.05;;;4.40;99.90;;;;;;5127977;28;20039;-59
2023/01/02 06:23:27;;;;;;;2.83;1.55;;;4.40;99.90;;;;;;5112651;28;20054;-59
2023/01/02 06:25:54;;;;;;;3.75;1.95;;;4.40;99.90;;;;;;5132353;28;20329;-59
2023/01/02 06:28:21;;;;;;;3.22;1.85;;;4.40;99.90;;;;;;5117338;27;20111;-59
2023/01/02 06:30:48;;;;;;;3.15;1.40;;;4.40;99.90;;;;;;5108886;28;20066;-61
2023/01/02 06:33:14;;;;;;;4.75;1.88;;;4.40;99.90;;;;;;5110570;28;20043;-61
2023/01/02 06:35:41;;;;;;;5.07;2.33;;;4.40;99.90;;;;;;5107980;28;20044;-61
2023/01/02 06:38:08;;;;;;;4.57;1.88;;;4.40;99.90;;;;;;5100886;28;20044;-61
2023/01/02 06:40:34;;;;;;;4.90;2.63;;;4.40;99.90;;;;;;5130445;27;20100;-61
2023/01/02 06:43:01;;;;;;;4.40;2.40;;;4.30;99.90;;;;;;5131144;28;20047;-61
2023/01/02 06:45:28;;;;;;;5.05;2.20;;;4.20;99.90;;;;;;5131767;28;20064;-59
2023/01/02 06:47:57;;;;;;;5.78;2.05;;;4.20;99.90;;;;;;5104190;27;20046;-59
2023/01/02 06:50:24;;;;;;;5.15;2.50;;;4.20;99.90;;;;;;5108802;28;20084;-59
2023/01/02 06:53:00;;;;;;;5.07;2.65;;;4.20;99.90;;;;;;5107541;28;20081;-59
2023/01/02 06:55:27;;;;;;;3.85;1.95;;;4.30;99.90;;;;;;5122156;28;20085;-61
2023/01/02 06:57:53;;;;;;;6.18;2.13;;;4.40;99.90;;;;;;5131433;28;20116;-59
2023/01/02 07:00:20;;;;;;;3.72;2.25;;;4.50;99.90;;;;;;5131167;27;20047;-59
2023/01/02 07:02:47;;;;;;;5.18;2.75;;;4.40;99.90;;;;;;5119043;28;20504;-59
2023/01/02 07:05:14;;;;;;;3.28;1.85;;;4.40;99.90;;;;;;5128481;28;20178;-60
2023/01/02 07:07:48;;;;;;;5.25;3.22;;;4.40;99.90;;;;;;5117916;27;20594;-59
2023/01/02 07:10:15;;;;;;;5.70;3.83;;;4.50;99.90;;;;;;5109158;28;20070;-61
2023/01/02 07:12:41;;;;;;;6.55;3.08;;;4.50;99.90;;;;;;5128877;27;20031;-59
2023/01/02 07:15:08;;;;;;;7.60;3.15;;;4.50;99.90;;;;;;5135012;27;20039;-59
2023/01/02 07:17:35;;;;;;;5.28;2.70;;;4.60;99.90;;;;;;5135277;27;20066;-61
2023/01/02 07:20:02;;;;;;;8.10;3.20;;;4.50;99.90;;;;;;5123093;27;20040;-61
2023/01/02 07:22:29;;;;;;;3.80;2.28;;;4.50;99.90;;;;;;5134171;27;20100;-61
2023/01/02 07:24:56;;;;;;;8.38;3.38;;;4.50;99.90;;;;;;5134744;27;20039;-61
2023/01/02 07:27:22;;;;;;;7.15;3.08;;;4.40;99.90;;;;;;5135173;27;20067;-61
2023/01/02 07:29:49;;;;;;;7.55;3.38;;;4.30;99.90;;;;;;5120593;22;20062;-63
2023/01/02 07:32:16;;;;;;;5.20;2.65;;;4.50;99.90;;;;;;5099762;28;20100;-62
2023/01/02 07:34:48;;;;;;;10.05;3.78;;;4.40;99.90;;;;;;5102471;28;20075;-62
2023/01/02 07:37:14;;;;;;;7.68;3.38;;;4.40;99.90;;;;;;5102190;28;20044;-62
2023/01/02 07:39:41;;;;;;;3.45;2.03;;;4.30;99.90;;;;;;5100535;28;20489;-63
2023/01/02 07:42:08;;;;;;;5.00;3.03;;;4.30;99.90;;;;;;5075106;28;20093;-63
2023/01/02 07:44:35;;;;;;;3.47;2.15;;;4.40;99.90;;;;;;5078915;28;20089;-63
2023/01/02 07:47:01;;;;;;;6.43;2.75;;;4.50;99.90;;;;;;5073148;28;20040;-63
2023/01/02 07:49:28;;;;;;;1.23;0.88;;;4.60;99.90;;;;;;5072623;28;20044;-63
2023/01/02 07:51:55;;;;;;;3.20;1.25;;;5.00;99.90;;;;;;5073084;28;20485;-62
2023/01/02 07:54:22;;;;;;;8.05;2.60;;;5.10;99.90;;;;;;5073457;28;20048;-63
2023/01/02 07:56:48;;;;;;;6.65;3.05;;;5.20;99.90;;;;;;5055349;28;20098;-63
2023/01/02 07:59:15;;;;;;;4.25;1.77;;;5.20;99.90;;;;;;5083319;28;20036;-63
2023/01/02 08:01:42;;;;;;;4.32;2.10;;;5.30;99.90;;;;;;5082222;28;20060;-63
2023/01/02 08:04:09;;;;;;;3.42;2.05;;;5.40;99.90;;;;;;5073095;28;20040;-63
2023/01/02 08:06:38;;;;;;;4.65;2.05;;;5.40;99.90;;;;;;5087322;28;20037;-63
2023/01/02 08:09:05;;;;;;;4.55;1.70;;;5.60;99.90;;;;;;5072821;28;20041;-63
2023/01/02 08:11:32;;;;;;;5.95;2.10;;;5.60;99.90;;;;;;5072388;28;20041;-62
2023/01/02 08:13:59;;;;;;;2.50;1.65;;;5.60;99.90;;;;;;5080161;28;20093;-63
2023/01/02 08:16:25;;;;;;;3.92;2.15;;;5.60;99.90;;;;;;5076390;28;20040;-63
2023/01/02 08:18:54;;;;;;;3.50;1.83;;;5.60;99.90;;;;;;5092791;28;20036;-63
2023/01/02 08:21:25;;;;;;;6.05;2.40;;;5.60;99.90;;;;;;5089888;28;20047;-63
2023/01/02 08:23:52;;;;;;;3.75;1.77;;;5.60;99.90;;;;;;5084012;28;20485;-63
2023/01/02 08:26:19;;;;;;;5.10;1.58;;;5.60;99.90;;;;;;5093100;28;20040;-63
2023/01/02 08:28:46;;;;;;;3.55;1.73;;;5.70;99.90;;;;;;5092771;28;20052;-63
2023/01/02 08:31:15;;;;;;;4.20;1.90;;;5.80;99.90;;;;;;5087680;28;20086;-63
2023/01/02 08:33:42;;;;;;;3.28;1.65;;;6.00;99.90;;;;;;5077246;28;20047;-63
2023/01/02 08:36:09;;;;;;;3.80;1.90;;;6.20;99.90;;;;;;5082166;28;20044;-63
2023/01/02 08:38:36;;;;;;;4.15;1.55;;;6.10;99.90;;;;;;5092444;28;20047;-63
2023/01/02 08:41:03;;;;;;;3.78;1.50;;;6.10;99.90;;;;;;5077873;28;20029;-63
2023/01/02 08:43:32;;;;;;;3.05;1.42;;;6.10;99.90;;;;;;5071517;28;20037;-62
2023/01/02 08:46:04;;;;;;;3.08;1.73;;;6.10;99.90;;;;;;5071404;28;20056;-63
2023/01/02 08:48:32;;;;;;;4.55;1.80;;;6.20;99.90;;;;;;5071945;28;20045;-63
2023/01/02 08:50:59;;;;;;;3.58;1.80;;;6.50;99.90;;;;;;5082938;28;20480;-63
2023/01/02 08:53:25;;;;;;;3.08;1.60;;;6.80;99.90;;;;;;5071779;28;20040;-63
2023/01/02 08:55:52;;;;;;;3.58;1.73;;;7.00;99.90;;;;;;5072194;28;20551;-63
2023/01/02 08:58:19;;;;;;;3.10;1.67;;;7.10;99.90;;;;;;5072032;28;20409;-63
2023/01/02 09:00:46;;;;;;;3.80;2.33;;;7.30;99.90;;;;;;5083131;28;20060;-63
2023/01/02 09:03:12;;;;;;;10.02;4.32;;;7.50;99.90;;;;;;5071560;28;20437;-63
2023/01/02 09:05:39;;;;;;;9.98;4.35;;;7.70;99.90;;;;;;5070465;28;20044;-63
2023/01/02 09:08:06;;;;;;;4.80;2.50;;;7.90;99.90;;;;;;5072081;28;20124;-63
2023/01/02 09:10:32;;;;;;;9.50;2.63;;;8.10;99.90;;;;;;5078999;28;20503;-63
2023/01/02 09:12:59;;;;;;;4.07;1.77;;;8.00;99.90;;;;;;5071310;28;20038;-63
2023/01/02 09:15:26;;;;;;;3.95;1.92;;;8.10;99.90;;;;;;5072021;28;20048;-63
2023/01/02 09:17:53;;;;;;;7.72;2.90;;;8.20;99.90;;;;;;5076385;28;20139;-63
2023/01/02 09:20:19;;;;;;;3.85;1.73;;;8.30;99.90;;;;;;5070716;28;20102;-63
2023/01/02 09:22:46;;;;;;;1.20;0.98;;;8.50;99.90;;;;;;5071209;28;20040;-63
2023/01/02 09:25:13;;;;;;;1.02;0.90;;;8.90;99.90;;;;;;5085592;28;20063;-63
2023/01/02 09:27:46;;;;;;;2.00;1.20;;;9.20;99.90;;;;;;5083428;28;20042;-63
2023/01/02 09:30:12;;;;;;;2.13;1.23;;;9.40;99.90;;;;;;5083234;28;20061;-62
2023/01/02 09:32:39;;;;;;;1.17;0.93;;;9.60;99.90;;;;;;5091615;28;20101;-62
2023/01/02 09:35:06;;;;;;;3.63;1.20;;;9.70;99.90;;;;;;5089799;28;20043;-63
2023/01/02 09:37:33;;;;;;;1.92;1.17;;;9.90;99.90;;;;;;5071416;28;20063;-63
2023/01/02 09:40:00;;;;;;;1.02;0.93;;;10.00;99.90;;;;;;5069984;28;20094;-63
2023/01/02 09:42:26;;;;;;;1.83;1.13;;;10.20;99.90;;;;;;5074083;28;20050;-63
2023/01/02 09:44:59;;;;;;;2.15;1.20;;;10.30;99.90;;;;;;5082641;28;20456;-63
2023/01/02 09:47:34;;;;;;;1.92;0.80;;;10.30;99.90;;;;;;5070864;28;20044;-63
2023/01/02 09:50:04;;;;;;;1.63;0.95;;;10.50;99.90;;;;;;5071110;28;20060;-63
2023/01/02 09:52:38;;;;;;;1.38;0.77;;;10.60;99.90;;;;;;5070641;28;20045;-62
2023/01/02 09:55:28;;;;;;;1.33;0.80;;;10.70;99.90;;;;;;5070686;28;20517;-63
2023/01/02 09:58:09;;;;;;;1.83;0.80;;;10.80;99.90;;;;;;5062976;28;20061;-63
2023/01/02 10:00:37;;;;;;;2.85;1.15;;;10.80;99.90;;;;;;5076359;28;20050;-63
2023/01/02 10:03:22;;;;;;;2.33;1.15;;;10.80;99.90;;;;;;5070232;28;20120;-63
2023/01/02 10:06:01;;;;;;;1.73;1.25;;;11.00;99.90;;;;;;5070660;28;20090;-63
2023/01/02 10:08:47;;;;;;;1.90;1.00;;;11.10;99.90;;;;;;5069395;28;20559;-62
2023/01/02 10:11:39;;;;;;;2.13;1.10;;;11.30;99.90;;;;;;5077262;28;20039;-63
2023/01/02 10:14:43;;;;;;;2.55;0.90;;;11.30;99.90;;;;;;5082730;28;20044;-63
2023/01/02 10:17:14;;;;;;;0.77;0.60;;;11.30;99.90;;;;;;5079876;28;20112;-63
2023/01/02 10:19:51;;;;;;;2.92;1.00;;;11.40;99.90;;;;;;5070801;28;20338;-62
2023/01/02 10:22:23;;;;;;;1.88;0.93;;;11.50;99.90;;;;;;5070078;28;20060;-63
2023/01/02 10:25:12;;;;;;;2.20;1.10;;;11.60;99.90;;;;;;5071511;28;20520;-63
2023/01/02 10:27:48;;;;;;;2.55;1.02;;;11.70;99.90;;;;;;5079116;28;20029;-62
2023/01/02 10:30:21;;;;;;;1.65;1.10;;;11.70;99.90;;;;;;5070698;28;20044;-62
2023/01/02 10:33:11;;;;;;;1.83;0.90;;;11.80;99.90;;;;;;5070382;28;20127;-63
2023/01/02 10:35:44;;;;;;;2.88;1.20;;;12.00;99.90;;;;;;5076995;28;20037;-63
2023/01/02 10:38:13;;;;;;;2.80;0.90;;;12.10;99.90;;;;;;5070193;28;20065;-63
2023/01/02 10:40:43;;;;;;;1.63;1.10;;;12.20;99.90;;;;;;5070120;28;20154;-63
2023/01/02 10:43:11;;;;;;;3.28;1.00;;;12.20;99.90;;;;;;5070053;28;20460;-63
2023/01/02 10:45:37;;;;;;;1.30;1.00;;;12.30;99.90;;;;;;5070945;28;20036;-63
2023/01/02 10:48:04;;;;;;;2.55;0.93;;;12.30;99.90;;;;;;5074403;28;20048;-63
2023/01/02 10:50:38;;;;;;;1.80;1.23;;;12.40;99.90;;;;;;5084806;28;20040;-62
2023/01/02 10:53:07;;;;;;;4.32;0.90;;;12.40;99.90;;;;;;5091345;28;20102;-62
2023/01/02 10:55:39;;;;;;;2.67;1.30;;;12.50;99.90;;;;;;5094710;28;20101;-62
2023/01/02 10:58:20;;;;;;;2.67;1.30;;;12.50;99.90;;;;;;5084216;28;20109;-62
2023/01/02 11:01:01;;;;;;;4.63;1.05;;;12.60;99.90;;;;;;5074057;28;20048;-62
2023/01/02 11:03:28;;;;;;;1.67;1.02;;;12.60;99.90;;;;;;5073705;28;20044;-62
2023/01/02 11:05:56;;;;;;;1.30;0.90;;;12.70;99.90;;;;;;5081894;28;20044;-62
2023/01/02 11:08:41;;;;;;;2.65;1.42;;;12.70;99.90;;;;;;5075557;28;20501;-63
2023/01/02 11:11:16;;;;;;;1.55;0.82;;;12.70;99.90;;;;;;5073800;28;20459;-63
2023/01/02 11:13:47;;;;;;;2.63;1.75;;;12.70;99.90;;;;;;5073426;28;20041;-63
2023/01/02 11:16:21;;;;;;;3.72;2.17;;;12.80;99.90;;;;;;5079375;28;20075;-63
2023/01/02 11:18:57;;;;;;;2.63;1.65;;;12.90;99.90;;;;;;5085919;28;20044;-63
2023/01/02 11:21:27;;;;;;;2.67;1.60;;;13.00;99.90;;;;;;5093650;28;20047;-63
2023/01/02 11:24:07;;;;;;;2.65;2.00;;;13.10;99.90;;;;;;5092978;28;20052;-63
2023/01/02 11:26:37;;;;;;;4.80;2.83;;;13.10;99.90;;;;;;5073596;28;20566;-64
2023/01/02 11:29:16;;;;;;;3.03;1.40;;;13.20;99.90;;;;;;5073542;28;20048;-63
2023/01/02 11:31:50;;;;;;;3.92;1.23;;;13.20;99.90;;;;;;5074985;28;20122;-63
2023/01/02 11:34:30;;;;;;;2.45;1.23;;;13.30;99.90;;;;;;5080693;28;20040;-63
2023/01/02 11:37:12;;;;;;;2.67;1.00;;;13.30;99.90;;;;;;5086876;28;20381;-63
2023/01/02 11:39:40;;;;;;;2.67;1.60;;;13.40;99.90;;;;;;5085760;28;20048;-63
2023/01/02 11:45:02;;;;;;;2.20;1.35;;;13.40;99.90;;;;;;5065980;28;20045;-63
2023/01/02 11:47:38;;;;;;;2.58;1.27;;;13.50;99.90;;;;;;5081674;28;20036;-63
2023/01/02 11:50:05;;;;;;;4.60;1.30;;;13.50;99.90;;;;;;5083450;28;20036;-63
2023/01/02 11:52:47;;;;;;;3.83;1.10;;;13.60;99.90;;;;;;5080118;28;20032;-63
2023/01/02 11:55:46;;;;;;;4.95;1.45;;;13.70;99.80;;;;;;5082092;28;20078;-63
2023/01/02 11:58:51;;;;;;;3.55;1.05;;;13.80;99.90;;;;;;5079903;28;20047;-63
2023/01/02 12:01:21;;;;;;;2.92;1.48;;;13.80;99.50;;;;;;5080700;28;20032;-63
2023/01/02 12:03:48;;;;;;;1.20;0.70;;;13.90;99.60;;;;;;5081278;28;20029;-63
2023/01/02 12:07:04;;;;;;;3.63;1.35;;;14.10;99.30;;;;;;5083944;28;20119;-63
2023/01/02 12:09:49;;;;;;;2.20;1.08;;;14.20;99.40;;;;;;5072996;28;20059;-63
2023/01/02 12:12:44;;;;;;;1.40;0.88;;;14.30;98.40;;;;;;5076408;28;20036;-63
2023/01/02 12:15:27;;;;;;;1.85;0.90;;;14.40;98.10;;;;;;5077459;28;20036;-63
2023/01/02 12:18:15;;;;;;;4.20;1.15;;;14.40;98.20;;;;;;5087389;28;20063;-63
2023/01/02 12:21:24;;;;;;;3.63;1.20;;;14.50;98.00;;;;;;5085939;28;20028;-63
2023/01/02 12:24:31;;;;;;;4.43;1.10;;;14.60;97.90;;;;;;5082111;28;20056;-63
2023/01/02 12:27:17;;;;;;;2.90;0.80;;;14.60;97.80;;;;;;5072064;28;20036;-62
2023/01/02 12:30:08;;;;;;;0.68;0.60;;;14.70;97.80;;;;;;5074120;28;20071;-63
2023/01/02 12:32:56;;;;;;;1.52;0.75;;;14.70;97.20;;;;;;5072179;28;20044;-63
2023/01/02 12:36:01;;;;;;;1.27;0.50;;;14.70;96.90;;;;;;5072711;28;20497;-63
2023/01/02 12:39:08;;;;;;;1.83;0.70;;;14.80;97.00;;;;;;5085770;28;20033;-63
2023/01/02 12:41:54;;;;;;;0.98;0.50;;;14.90;96.90;;;;;;5082178;28;20036;-63
2023/01/02 12:44:36;;;;;;;2.05;1.05;;;14.90;96.40;;;;;;5085840;28;20031;-63
2023/01/02 12:47:40;;;;;;;1.70;0.70;;;14.90;97.10;;;;;;5083323;28;20435;-63
2023/01/02 12:50:32;;;;;;;1.20;0.55;;;14.90;96.50;;;;;;5091410;28;20082;-63
2023/01/02 12:53:21;;;;;;;3.00;0.85;;;15.00;96.10;;;;;;5090530;28;20071;-63
2023/01/02 12:56:13;;;;;;;2.63;0.90;;;15.00;96.20;;;;;;5077853;28;20036;-63
2023/01/02 12:59:12;;;;;;;2.13;0.73;;;15.00;96.70;;;;;;5072230;28;20070;-63
2023/01/02 13:01:50;;;;;;;0.98;0.73;;;15.10;96.70;;;;;;5069282;28;20060;-63
2023/01/02 13:04:46;;;;;;;0.80;0.60;;;15.10;96.30;;;;;;5090502;28;20055;-63
2023/01/02 13:07:24;;;;;;;1.60;0.60;;;15.10;96.80;;;;;;5071395;28;20056;-63
2023/01/02 13:09:52;;;;;;;2.03;0.85;;;15.20;96.60;;;;;;5084611;28;20094;-63
2023/01/02 13:12:23;;;;;;;4.47;0.95;;;15.20;95.80;;;;;;5075010;28;20093;-63
2023/01/02 13:14:59;;;;;;;1.33;0.85;;;15.30;96.50;;;;;;5086738;28;20085;-63
2023/01/02 13:17:50;;;;;;;2.22;1.00;;;15.30;96.20;;;;;;5085629;28;20554;-63
2023/01/02 13:20:27;;;;;;;1.30;0.80;;;15.30;96.40;;;;;;5078737;28;20048;-63
2023/01/02 13:23:25;;;;;;;1.73;0.70;;;15.30;96.30;;;;;;5082586;28;20093;-63
2023/01/02 13:25:56;;;;;;;2.95;1.70;;;15.20;95.80;;;;;;5086849;28;20044;-63
2023/01/02 13:28:23;;;;;;;0.68;0.50;;;15.20;96.40;;;;;;5088132;28;20443;-63
2023/01/02 13:31:05;;;;;;;3.00;0.70;;;15.10;95.60;;;;;;5115886;22;20403;-60